Time;durP1;ratioP1;P1;durP2;ratioP2;P2;SDS_P1;SDS_P2;PMS_P1;PMS_P2;Temp;Humidity;BMP_temperature;BMP_pressure;BME280_temperature;BME280_humidity;BME280_pressure;Samples;Min_cycle;Max_cycle;Signal;HPM_P1;HPM_P2
2021/10/18 00:01:22;;;;;;;17.17;7.25;;;5.90;99.90;;;;;;5113362;28;20016;-60
2021/10/18 00:03:48;;;;;;;15.77;8.27;;;5.90;99.90;;;;;;5110718;28;20027;-60
2021/10/18 00:06:13;;;;;;;17.30;7.50;;;6.00;99.90;;;;;;5113141;28;20027;-60
2021/10/18 00:08:39;;;;;;;13.77;6.90;;;6.00;99.90;;;;;;5112827;28;20200;-61
2021/10/18 00:11:05;;;;;;;11.50;6.88;;;6.00;99.90;;;;;;5113298;28;20035;-60
2021/10/18 00:13:30;;;;;;;10.98;7.57;;;5.90;99.90;;;;;;5113287;28;20043;-60
2021/10/18 00:15:56;;;;;;;13.10;7.03;;;5.90;99.90;;;;;;5113268;28;20076;-57
2021/10/18 00:18:22;;;;;;;11.88;7.07;;;5.90;99.90;;;;;;5112878;28;20517;-55
2021/10/18 00:20:48;;;;;;;20.80;7.40;;;5.80;99.90;;;;;;5113131;28;20032;-54
2021/10/18 00:23:13;;;;;;;12.23;7.47;;;5.80;99.90;;;;;;5112961;28;20040;-61
2021/10/18 00:25:39;;;;;;;15.35;8.05;;;5.80;99.90;;;;;;5113022;28;20027;-62
2021/10/18 00:28:05;;;;;;;14.82;7.97;;;5.80;99.90;;;;;;5112821;28;20032;-58
2021/10/18 00:30:30;;;;;;;15.05;7.93;;;5.80;99.90;;;;;;5112962;28;20114;-62
2021/10/18 00:32:56;;;;;;;13.95;7.55;;;5.80;99.90;;;;;;5113191;28;20031;-61
2021/10/18 00:35:22;;;;;;;12.27;8.25;;;5.80;99.90;;;;;;5112790;28;20032;-62
2021/10/18 00:37:47;;;;;;;12.77;7.45;;;5.80;99.90;;;;;;5112519;28;20024;-60
2021/10/18 00:40:14;;;;;;;15.15;7.57;;;5.80;99.90;;;;;;5112674;28;20374;-62
2021/10/18 00:42:41;;;;;;;14.25;7.95;;;5.80;99.90;;;;;;5112599;28;20086;-60
2021/10/18 00:45:08;;;;;;;12.13;7.82;;;5.80;99.90;;;;;;5112632;28;20027;-60
2021/10/18 00:47:34;;;;;;;11.25;7.85;;;5.90;99.90;;;;;;5112261;28;20031;-60
2021/10/18 00:49:59;;;;;;;14.02;7.55;;;5.80;99.90;;;;;;5111724;28;20023;-62
2021/10/18 00:52:26;;;;;;;13.30;7.50;;;5.80;99.90;;;;;;5112423;28;20020;-61
2021/10/18 00:54:53;;;;;;;12.50;7.72;;;5.80;99.90;;;;;;5094179;28;20029;-61
2021/10/18 00:57:19;;;;;;;14.57;7.50;;;5.80;99.90;;;;;;5112142;28;20027;-61
2021/10/18 00:59:46;;;;;;;12.38;7.40;;;5.70;99.90;;;;;;5109010;28;20110;-61
2021/10/18 01:02:12;;;;;;;22.65;8.02;;;5.70;99.90;;;;;;5112253;28;20023;-61
2021/10/18 01:04:38;;;;;;;14.00;8.15;;;5.70;99.90;;;;;;5112205;28;20553;-60
2021/10/18 01:07:04;;;;;;;14.77;8.45;;;5.70;99.90;;;;;;5111443;28;20063;-58
2021/10/18 01:09:29;;;;;;;13.93;7.97;;;5.70;99.90;;;;;;5111920;28;20047;-62
2021/10/18 01:11:55;;;;;;;13.95;7.82;;;5.60;99.90;;;;;;5112366;28;20108;-61
2021/10/18 01:14:21;;;;;;;12.10;7.45;;;5.60;99.90;;;;;;5112032;28;20027;-61
2021/10/18 01:16:46;;;;;;;12.68;7.55;;;5.60;99.90;;;;;;5111695;28;20035;-61
2021/10/18 01:19:14;;;;;;;13.90;7.63;;;5.60;99.90;;;;;;5111596;28;20386;-60
2021/10/18 01:21:40;;;;;;;12.23;7.55;;;5.60;99.90;;;;;;5111832;28;20047;-60
2021/10/18 01:24:06;;;;;;;10.52;8.02;;;5.60;99.90;;;;;;5111938;28;20031;-61
2021/10/18 01:26:32;;;;;;;11.88;7.45;;;5.50;99.90;;;;;;5111699;28;20034;-61
2021/10/18 01:28:58;;;;;;;12.05;8.05;;;5.50;99.90;;;;;;5111428;28;20074;-62
2021/10/18 01:31:23;;;;;;;15.48;8.73;;;5.50;99.90;;;;;;5111742;28;20023;-62
2021/10/18 01:33:49;;;;;;;15.93;8.43;;;5.50;99.90;;;;;;5111760;28;20035;-61
2021/10/18 01:36:15;;;;;;;14.35;7.95;;;5.50;99.90;;;;;;5111580;28;20106;-62
2021/10/18 01:38:40;;;;;;;15.10;7.75;;;5.50;99.90;;;;;;5111761;28;20085;-61
2021/10/18 01:41:06;;;;;;;15.15;8.88;;;5.50;99.90;;;;;;5111819;28;20038;-61
2021/10/18 01:43:32;;;;;;;13.88;7.65;;;5.50;99.90;;;;;;5111654;28;20098;-61
2021/10/18 01:45:57;;;;;;;14.70;7.88;;;5.50;99.90;;;;;;5111503;28;20024;-61
2021/10/18 01:48:23;;;;;;;15.63;7.60;;;5.50;99.90;;;;;;5111154;28;20039;-58
2021/10/18 01:50:48;;;;;;;16.85;8.00;;;5.50;99.90;;;;;;5111449;28;20032;-61
2021/10/18 01:53:14;;;;;;;12.15;7.63;;;5.50;99.90;;;;;;5111638;28;20070;-60
2021/10/18 01:55:40;;;;;;;14.05;7.78;;;5.40;99.90;;;;;;5111885;28;20455;-61
2021/10/18 01:58:06;;;;;;;14.85;8.15;;;5.40;99.90;;;;;;5111182;28;20476;-59
2021/10/18 02:00:32;;;;;;;17.33;7.90;;;5.40;99.90;;;;;;5111099;28;20427;-58
2021/10/18 02:02:57;;;;;;;12.63;7.97;;;5.40;99.90;;;;;;5111397;28;20027;-60
2021/10/18 02:05:23;;;;;;;13.77;7.60;;;5.40;99.90;;;;;;5111186;28;20110;-61
2021/10/18 02:07:48;;;;;;;13.68;8.32;;;5.40;99.90;;;;;;5110848;28;20072;-60
2021/10/18 02:10:14;;;;;;;12.35;7.57;;;5.40;99.90;;;;;;5111227;28;20031;-61
2021/10/18 02:12:40;;;;;;;12.63;7.53;;;5.40;99.90;;;;;;5111208;28;20023;-60
2021/10/18 02:15:08;;;;;;;15.52;8.00;;;5.30;99.90;;;;;;5111584;28;20148;-59
2021/10/18 02:17:34;;;;;;;13.85;7.53;;;5.40;99.90;;;;;;5110765;28;20035;-59
2021/10/18 02:19:59;;;;;;;13.80;7.85;;;5.30;99.90;;;;;;5111055;28;20035;-60
2021/10/18 02:22:25;;;;;;;16.35;7.80;;;5.40;99.90;;;;;;5111166;28;20447;-60
2021/10/18 02:24:51;;;;;;;12.90;7.63;;;5.30;99.90;;;;;;5111069;28;20089;-56
2021/10/18 02:27:17;;;;;;;11.02;8.02;;;5.30;99.90;;;;;;5110697;28;20076;-60
2021/10/18 02:29:42;;;;;;;12.38;7.88;;;5.30;99.90;;;;;;5111075;28;20019;-60
2021/10/18 02:32:08;;;;;;;14.57;8.80;;;5.20;99.90;;;;;;5111367;28;20020;-58
2021/10/18 02:34:34;;;;;;;13.38;7.90;;;5.20;99.90;;;;;;5111073;28;20454;-59
2021/10/18 02:37:00;;;;;;;17.60;8.13;;;5.10;99.90;;;;;;5110901;28;20027;-60
2021/10/18 02:39:25;;;;;;;13.55;8.00;;;5.10;99.90;;;;;;5110748;28;20020;-61
2021/10/18 02:41:51;;;;;;;13.95;8.32;;;5.10;99.90;;;;;;5110886;28;20034;-57
2021/10/18 02:44:16;;;;;;;17.38;7.90;;;5.10;99.90;;;;;;5110821;28;20028;-59
2021/10/18 02:46:42;;;;;;;13.43;7.90;;;5.00;99.90;;;;;;5110972;28;20035;-58
2021/10/18 02:49:08;;;;;;;14.43;7.90;;;5.00;99.90;;;;;;5110831;28;20098;-59
2021/10/18 02:51:33;;;;;;;12.15;8.00;;;5.00;99.90;;;;;;5110820;28;20103;-59
2021/10/18 02:53:59;;;;;;;13.50;8.93;;;5.00;99.90;;;;;;5111046;28;20035;-60
2021/10/18 02:56:25;;;;;;;14.90;8.35;;;4.90;99.90;;;;;;5110996;28;20099;-59
2021/10/18 02:58:51;;;;;;;11.65;7.72;;;4.90;99.90;;;;;;5110677;28;20150;-59
2021/10/18 03:01:16;;;;;;;14.63;8.20;;;4.90;99.90;;;;;;5110612;28;20020;-60
2021/10/18 03:03:42;;;;;;;13.70;8.48;;;4.90;99.90;;;;;;5111121;28;20032;-60
2021/10/18 03:06:07;;;;;;;15.63;8.48;;;4.90;99.90;;;;;;5110598;28;20038;-59
2021/10/18 03:08:33;;;;;;;11.57;8.73;;;5.00;99.90;;;;;;5110191;28;20558;-59
2021/10/18 03:10:59;;;;;;;12.88;7.07;;;5.00;99.90;;;;;;5111058;28;20015;-59
2021/10/18 03:13:24;;;;;;;13.13;8.38;;;4.90;99.90;;;;;;5112764;28;20028;-59
2021/10/18 03:15:50;;;;;;;13.43;7.60;;;4.90;99.90;;;;;;5114304;28;20036;-59
2021/10/18 03:18:16;;;;;;;17.52;7.30;;;4.80;99.90;;;;;;5114374;28;20333;-59
2021/10/18 03:20:41;;;;;;;17.15;8.35;;;4.80;99.90;;;;;;5114248;28;20026;-62
2021/10/18 03:23:07;;;;;;;17.15;9.80;;;4.80;99.90;;;;;;5114359;28;20412;-60
2021/10/18 03:25:34;;;;;;;23.75;11.23;;;4.90;99.90;;;;;;5113974;28;20472;-59
2021/10/18 03:28:04;;;;;;;14.27;9.77;;;4.90;99.90;;;;;;5113860;28;20072;-59
2021/10/18 03:30:30;;;;;;;19.88;9.85;;;5.00;99.90;;;;;;5114043;28;20489;-59
2021/10/18 03:32:56;;;;;;;15.98;9.35;;;5.00;99.90;;;;;;5114089;28;20033;-60
2021/10/18 03:35:22;;;;;;;17.38;8.40;;;5.10;99.90;;;;;;5113922;28;20030;-61
2021/10/18 03:37:48;;;;;;;12.98;7.80;;;5.10;99.90;;;;;;5113619;28;20023;-60
2021/10/18 03:40:13;;;;;;;13.25;8.27;;;5.10;99.90;;;;;;5113738;28;20023;-60
2021/10/18 03:42:39;;;;;;;12.68;7.95;;;5.20;99.90;;;;;;5113938;28;20485;-59
2021/10/18 03:45:10;;;;;;;12.65;7.85;;;5.10;99.90;;;;;;5113647;28;20076;-60
2021/10/18 03:47:36;;;;;;;13.88;7.95;;;5.10;99.90;;;;;;5113232;28;20020;-61
2021/10/18 03:50:02;;;;;;;18.00;9.35;;;5.10;99.90;;;;;;5113663;28;20026;-60
2021/10/18 03:52:27;;;;;;;16.38;9.00;;;5.10;99.90;;;;;;5113688;28;20028;-60
2021/10/18 03:54:53;;;;;;;13.50;8.15;;;5.20;99.90;;;;;;5113420;28;20192;-61
2021/10/18 03:57:18;;;;;;;14.80;8.32;;;5.20;99.90;;;;;;5113315;28;20377;-60
2021/10/18 03:59:44;;;;;;;12.65;8.48;;;5.20;99.90;;;;;;5113400;28;20020;-59
2021/10/18 04:02:10;;;;;;;15.98;9.07;;;5.20;99.90;;;;;;5113653;28;20031;-62
2021/10/18 04:04:36;;;;;;;14.63;8.65;;;5.20;99.90;;;;;;5113496;28;20024;-61
2021/10/18 04:07:02;;;;;;;15.05;9.35;;;5.20;99.90;;;;;;5112967;28;20040;-62
2021/10/18 04:09:27;;;;;;;14.02;9.85;;;5.10;99.90;;;;;;5113539;28;20038;-61
2021/10/18 04:11:53;;;;;;;13.25;8.75;;;5.10;99.90;;;;;;5113299;28;20091;-61
2021/10/18 04:14:18;;;;;;;18.80;9.50;;;5.10;99.90;;;;;;5113435;28;20015;-62
2021/10/18 04:16:44;;;;;;;16.00;10.18;;;5.00;99.90;;;;;;5113003;28;20114;-61
2021/10/18 04:19:09;;;;;;;15.70;8.88;;;5.00;99.90;;;;;;5112869;28;20104;-60
2021/10/18 04:21:35;;;;;;;22.38;11.60;;;5.00;99.90;;;;;;5113051;28;20377;-62
2021/10/18 04:24:01;;;;;;;17.63;10.27;;;5.00;99.90;;;;;;5111965;28;20408;-60
2021/10/18 04:26:26;;;;;;;17.65;11.07;;;5.00;99.90;;;;;;5112858;28;20456;-61
2021/10/18 04:28:52;;;;;;;20.02;10.45;;;5.00;99.90;;;;;;5112924;28;20031;-61
2021/10/18 04:31:17;;;;;;;15.52;10.13;;;5.00;99.90;;;;;;5112909;28;20016;-60
2021/10/18 04:33:43;;;;;;;16.20;9.88;;;5.00;99.90;;;;;;5112996;28;20031;-61
2021/10/18 04:36:08;;;;;;;16.65;9.75;;;5.00;99.90;;;;;;5112689;28;20103;-61
2021/10/18 04:38:34;;;;;;;16.13;9.60;;;5.00;99.90;;;;;;5112577;28;20026;-60
2021/10/18 04:41:00;;;;;;;25.00;10.82;;;5.00;99.90;;;;;;5112733;28;20125;-60
2021/10/18 04:43:25;;;;;;;18.27;10.05;;;4.90;99.90;;;;;;5112774;28;20503;-61
2021/10/18 04:45:51;;;;;;;18.02;10.57;;;4.90;99.90;;;;;;5112528;28;20042;-61
2021/10/18 04:48:16;;;;;;;19.80;10.23;;;4.90;99.90;;;;;;5112306;28;20080;-61
2021/10/18 04:50:42;;;;;;;13.93;9.70;;;4.90;99.90;;;;;;5112442;28;20027;-63
2021/10/18 04:53:07;;;;;;;14.80;9.25;;;4.90;99.90;;;;;;5112662;28;20340;-61
2021/10/18 04:55:33;;;;;;;20.40;9.75;;;4.80;99.90;;;;;;5112288;28;20020;-59
2021/10/18 04:58:01;;;;;;;19.48;10.73;;;4.80;99.90;;;;;;5112431;28;20019;-57
2021/10/18 05:00:30;;;;;;;17.40;10.45;;;4.70;99.90;;;;;;5112285;28;20158;-59
2021/10/18 05:02:56;;;;;;;24.15;11.40;;;4.70;99.90;;;;;;5112359;28;20393;-60
2021/10/18 05:05:22;;;;;;;18.38;11.75;;;4.70;99.90;;;;;;5112265;28;20038;-61
2021/10/18 05:08:00;;;;;;;19.88;11.77;;;4.70;99.90;;;;;;5111573;28;20039;-60
2021/10/18 05:10:26;;;;;;;25.50;11.70;;;4.70;99.90;;;;;;5112271;28;20365;-61
2021/10/18 05:12:51;;;;;;;23.95;11.13;;;4.70;99.90;;;;;;5112251;28;20073;-60
2021/10/18 05:15:17;;;;;;;19.42;11.48;;;4.80;99.90;;;;;;5112112;28;20516;-61
2021/10/18 05:17:42;;;;;;;24.88;13.18;;;4.80;99.90;;;;;;5111669;28;20519;-60
2021/10/18 05:20:08;;;;;;;22.55;12.77;;;4.80;99.90;;;;;;5111904;28;20399;-62
2021/10/18 05:22:34;;;;;;;21.42;12.93;;;4.90;99.90;;;;;;5111833;28;20525;-61
2021/10/18 05:24:59;;;;;;;22.63;12.70;;;5.00;99.90;;;;;;5111834;28;20098;-60
2021/10/18 05:27:25;;;;;;;20.98;12.55;;;5.00;99.90;;;;;;5111467;28;20020;-60
2021/10/18 05:29:50;;;;;;;19.98;12.23;;;5.00;99.90;;;;;;5111626;28;20027;-60
2021/10/18 05:32:16;;;;;;;20.10;12.27;;;5.00;99.90;;;;;;5099044;22;20120;-59
2021/10/18 05:34:41;;;;;;;19.13;11.32;;;5.00;99.90;;;;;;5070602;28;20102;-57
2021/10/18 05:37:07;;;;;;;24.02;12.45;;;5.10;99.90;;;;;;5070308;28;20036;-60
2021/10/18 05:39:33;;;;;;;18.23;12.05;;;5.10;99.90;;;;;;5071002;28;20032;-62
2021/10/18 05:41:58;;;;;;;20.02;11.10;;;5.10;99.90;;;;;;5063021;28;20031;-56
2021/10/18 05:44:24;;;;;;;18.83;11.75;;;5.10;99.90;;;;;;5071096;28;20035;-60
2021/10/18 05:46:49;;;;;;;24.65;12.07;;;5.10;99.90;;;;;;5070743;28;20038;-59
2021/10/18 05:49:15;;;;;;;21.38;12.00;;;5.00;99.90;;;;;;5070627;28;20082;-61
2021/10/18 05:51:40;;;;;;;23.63;11.48;;;5.00;99.90;;;;;;5070600;28;20478;-59
2021/10/18 05:54:07;;;;;;;25.85;12.05;;;5.00;99.90;;;;;;5070918;28;20028;-61
2021/10/18 05:56:33;;;;;;;19.63;13.07;;;4.90;99.90;;;;;;5070881;28;20078;-58
2021/10/18 05:58:59;;;;;;;20.52;12.55;;;5.00;99.90;;;;;;5070523;28;20394;-60
2021/10/18 06:01:25;;;;;;;24.13;12.00;;;5.00;99.90;;;;;;5070589;28;20020;-60
2021/10/18 06:03:51;;;;;;;23.35;11.88;;;4.90;99.90;;;;;;5070832;28;20115;-60
2021/10/18 06:06:17;;;;;;;26.40;13.80;;;4.90;99.90;;;;;;5070560;28;20482;-60
2021/10/18 06:08:43;;;;;;;24.20;13.15;;;4.90;99.90;;;;;;5070176;28;20081;-58
2021/10/18 06:11:09;;;;;;;24.27;12.52;;;5.00;99.90;;;;;;5070566;28;20028;-60
2021/10/18 06:13:35;;;;;;;24.75;13.23;;;5.00;99.90;;;;;;5071199;28;20028;-57
2021/10/18 06:16:00;;;;;;;21.48;13.10;;;5.00;99.90;;;;;;5071076;28;20119;-60
2021/10/18 06:18:26;;;;;;;29.77;13.38;;;5.10;99.90;;;;;;5070398;28;20401;-60
2021/10/18 06:20:54;;;;;;;26.83;14.13;;;5.10;99.90;;;;;;5070277;28;20486;-60
2021/10/18 06:23:21;;;;;;;23.25;13.75;;;5.10;99.90;;;;;;5070901;28;20023;-62
2021/10/18 06:25:47;;;;;;;24.73;13.77;;;5.20;99.90;;;;;;5070254;28;20470;-59
2021/10/18 06:28:14;;;;;;;22.15;13.50;;;5.20;99.90;;;;;;5070203;28;20029;-59
2021/10/18 06:30:40;;;;;;;21.58;13.85;;;5.20;99.90;;;;;;5070200;28;20019;-59
2021/10/18 06:33:05;;;;;;;28.10;13.90;;;5.30;99.90;;;;;;5070431;28;20374;-60
2021/10/18 06:35:35;;;;;;;23.90;13.40;;;5.30;99.90;;;;;;5070470;28;20047;-62
2021/10/18 06:38:02;;;;;;;26.95;14.50;;;5.40;99.90;;;;;;5069941;28;20108;-60
2021/10/18 06:40:27;;;;;;;27.42;14.20;;;5.50;99.90;;;;;;5070309;28;20112;-60
2021/10/18 06:42:53;;;;;;;23.75;14.00;;;5.60;99.90;;;;;;5070482;28;20115;-60
2021/10/18 06:45:19;;;;;;;25.35;14.52;;;5.70;99.90;;;;;;5070305;28;20035;-60
2021/10/18 06:47:45;;;;;;;24.63;13.45;;;5.80;99.90;;;;;;5071089;28;20466;-62
2021/10/18 06:50:11;;;;;;;23.15;13.50;;;5.90;99.90;;;;;;5074003;28;20032;-62
2021/10/18 06:52:40;;;;;;;23.33;12.20;;;5.90;99.90;;;;;;5073992;28;20017;-62
2021/10/18 06:55:07;;;;;;;25.25;12.32;;;6.00;99.90;;;;;;5074036;28;20051;-62
2021/10/18 06:57:33;;;;;;;22.80;13.20;;;6.10;99.90;;;;;;5073821;28;20052;-61
2021/10/18 06:59:59;;;;;;;21.85;13.18;;;6.20;99.90;;;;;;5073953;28;20025;-61
2021/10/18 07:02:26;;;;;;;22.10;12.75;;;6.30;99.90;;;;;;5073876;28;20539;-61
2021/10/18 07:04:52;;;;;;;21.52;12.40;;;6.50;99.90;;;;;;5074087;28;20024;-63
2021/10/18 07:07:18;;;;;;;24.67;12.93;;;6.50;99.90;;;;;;5073498;28;20032;-58
2021/10/18 07:09:44;;;;;;;27.58;13.05;;;6.70;99.90;;;;;;5073926;28;20104;-56
2021/10/18 07:12:10;;;;;;;20.70;12.75;;;6.80;99.90;;;;;;5073979;28;20104;-60
2021/10/18 07:14:36;;;;;;;23.08;14.18;;;7.00;99.90;;;;;;5073945;28;20436;-58
2021/10/18 07:17:01;;;;;;;24.50;13.07;;;7.10;99.90;;;;;;5073616;28;20120;-58
2021/10/18 07:19:27;;;;;;;18.40;12.52;;;7.20;99.90;;;;;;5073481;28;20104;-60
2021/10/18 07:21:53;;;;;;;24.23;12.43;;;7.30;99.90;;;;;;5073600;28;20020;-60
2021/10/18 07:24:18;;;;;;;19.65;11.75;;;7.40;99.90;;;;;;5073762;28;20478;-60
2021/10/18 07:26:48;;;;;;;19.98;12.57;;;7.50;99.90;;;;;;5073431;28;20035;-57
2021/10/18 07:29:14;;;;;;;18.63;12.00;;;7.60;99.90;;;;;;5073184;28;20529;-57
2021/10/18 07:31:41;;;;;;;20.08;11.63;;;7.70;99.90;;;;;;5071894;28;20115;-57
2021/10/18 07:34:12;;;;;;;19.70;12.48;;;7.80;99.90;;;;;;5073325;28;20023;-59
2021/10/18 07:36:46;;;;;;;18.05;12.00;;;7.90;99.90;;;;;;5073367;28;20379;-57
2021/10/18 07:39:12;;;;;;;18.95;11.63;;;8.00;99.90;;;;;;5073095;28;20059;-58
2021/10/18 07:41:38;;;;;;;23.25;11.27;;;8.00;99.90;;;;;;5073314;28;20068;-57
2021/10/18 07:44:03;;;;;;;23.15;12.18;;;8.20;99.90;;;;;;5073559;28;20105;-57
2021/10/18 07:46:30;;;;;;;16.83;10.98;;;8.20;99.90;;;;;;5073161;28;20033;-62
2021/10/18 07:48:55;;;;;;;19.33;11.30;;;8.20;99.90;;;;;;5072826;28;20045;-59
2021/10/18 07:51:21;;;;;;;18.15;10.63;;;8.30;99.90;;;;;;5073033;28;20017;-58
2021/10/18 07:53:47;;;;;;;17.50;10.88;;;8.40;99.90;;;;;;5073149;28;20107;-58
2021/10/18 07:56:12;;;;;;;18.58;11.15;;;8.50;99.90;;;;;;5072924;28;20025;-57
2021/10/18 07:58:38;;;;;;;19.08;11.05;;;8.50;99.90;;;;;;5072376;28;20024;-60
2021/10/18 08:01:04;;;;;;;17.98;10.32;;;8.70;99.90;;;;;;5068881;28;20151;-58
2021/10/18 08:03:29;;;;;;;15.50;10.07;;;8.80;99.90;;;;;;5052863;28;20132;-58
2021/10/18 08:05:55;;;;;;;14.90;10.10;;;9.00;99.90;;;;;;5052838;28;20410;-59
2021/10/18 08:08:22;;;;;;;18.02;10.25;;;9.10;99.90;;;;;;5052251;28;20021;-61
2021/10/18 08:10:49;;;;;;;18.48;10.60;;;9.20;99.90;;;;;;5052651;28;20029;-58
2021/10/18 08:13:16;;;;;;;18.23;10.85;;;9.20;99.90;;;;;;5052570;28;20071;-60
2021/10/18 08:15:42;;;;;;;19.05;9.60;;;9.30;99.90;;;;;;5052611;28;20028;-58
2021/10/18 08:18:07;;;;;;;17.58;9.82;;;9.30;99.90;;;;;;5052229;28;20048;-60
2021/10/18 08:20:33;;;;;;;16.08;10.00;;;9.40;99.90;;;;;;5052385;28;20029;-60
2021/10/18 08:22:58;;;;;;;18.08;9.32;;;9.50;99.90;;;;;;5052482;28;20029;-59
2021/10/18 08:25:24;;;;;;;19.65;10.15;;;9.60;99.90;;;;;;5052602;28;20394;-58
2021/10/18 08:27:50;;;;;;;18.85;9.80;;;9.80;99.90;;;;;;5051828;28;20512;-58
2021/10/18 08:30:16;;;;;;;16.08;8.48;;;9.80;99.90;;;;;;5052130;28;20024;-58
2021/10/18 08:32:42;;;;;;;16.85;8.75;;;9.90;99.90;;;;;;5052015;28;20483;-58
2021/10/18 08:35:09;;;;;;;16.55;8.85;;;9.90;99.90;;;;;;5052130;28;20040;-61
2021/10/18 08:40:21;;;;;;;;;;;10.00;99.90;;;;;;5052565;28;20055;-58
2021/10/18 08:43:06;;;;;;;16.08;7.95;;;10.20;99.90;;;;;;5052131;28;19912;-61
2021/10/18 08:45:32;;;;;;;15.55;8.32;;;10.30;99.90;;;;;;5052338;28;20025;-61
2021/10/18 08:47:58;;;;;;;20.67;10.30;;;10.40;99.90;;;;;;5051683;28;20067;-60
2021/10/18 08:50:24;;;;;;;14.52;8.68;;;10.50;99.90;;;;;;5051714;28;20367;-57
2021/10/18 08:52:51;;;;;;;15.48;9.25;;;10.60;99.90;;;;;;5051844;28;20044;-59
2021/10/18 08:55:16;;;;;;;13.32;8.88;;;10.70;99.90;;;;;;5051957;28;20071;-60
2021/10/18 08:57:42;;;;;;;15.90;8.40;;;10.80;99.90;;;;;;5051554;28;20037;-61
2021/10/18 09:00:34;;;;;;;15.15;8.70;;;10.90;99.90;;;;;;5051800;28;20029;-60
2021/10/18 09:03:00;;;;;;;18.15;9.77;;;11.00;99.90;;;;;;5071098;28;20482;-61
2021/10/18 09:05:26;;;;;;;15.20;8.15;;;11.10;99.90;;;;;;5071579;28;20063;-57
2021/10/18 09:07:51;;;;;;;16.13;9.10;;;11.40;99.90;;;;;;5071276;28;20060;-57
2021/10/18 09:10:17;;;;;;;16.17;10.30;;;11.70;99.90;;;;;;5070738;28;20020;-58
2021/10/18 09:12:44;;;;;;;14.55;9.00;;;12.00;99.90;;;;;;5071415;28;20074;-61
2021/10/18 09:15:27;;;;;;;17.67;8.93;;;12.20;99.90;;;;;;5071389;28;20488;-61
2021/10/18 09:17:58;;;;;;;16.30;9.85;;;12.50;99.90;;;;;;5071170;28;20036;-60
2021/10/18 09:20:26;;;;;;;17.70;8.63;;;12.80;99.90;;;;;;5071256;28;20126;-59
2021/10/18 09:22:54;;;;;;;16.35;10.25;;;13.00;99.90;;;;;;5071512;28;20394;-61
2021/10/18 09:25:35;;;;;;;19.15;10.57;;;13.10;99.90;;;;;;5071271;28;20025;-59
2021/10/18 09:28:14;;;;;;;17.88;9.20;;;13.20;99.90;;;;;;5071172;28;20016;-59
2021/10/18 09:30:45;;;;;;;17.73;9.38;;;13.30;99.90;;;;;;5070870;28;20048;-59
2021/10/18 09:33:27;;;;;;;14.65;9.20;;;13.60;99.90;;;;;;5071215;28;20017;-58
2021/10/18 09:35:54;;;;;;;15.93;11.65;;;13.70;99.90;;;;;;5071095;28;20028;-60
2021/10/18 09:38:21;;;;;;;16.85;11.00;;;13.80;99.90;;;;;;5070826;28;20033;-59
2021/10/18 09:40:49;;;;;;;16.33;10.00;;;14.10;99.90;;;;;;5070982;28;20077;-57
2021/10/18 09:43:34;;;;;;;14.32;9.32;;;14.00;99.90;;;;;;5071008;28;20107;-59
2021/10/18 09:46:13;;;;;;;12.45;9.00;;;13.90;99.90;;;;;;5070930;28;20085;-58
2021/10/18 10:53:25;;;;;;;12.68;9.25;;;14.50;99.90;;;;;;5054606;28;20122;-59
2021/10/18 10:55:53;;;;;;;14.20;10.50;;;14.70;99.90;;;;;;5054159;28;20018;-60
2021/10/18 10:58:33;;;;;;;16.30;9.95;;;14.70;99.90;;;;;;5053972;28;20106;-58
2021/10/18 11:00:59;;;;;;;16.27;11.48;;;14.60;99.90;;;;;;5056814;28;20032;-61
2021/10/18 11:03:31;;;;;;;15.65;10.80;;;14.30;99.90;;;;;;5074012;28;20032;-58
2021/10/18 11:06:04;;;;;;;16.20;10.30;;;14.20;99.90;;;;;;5074018;28;20537;-58
2021/10/18 11:08:34;;;;;;;19.43;11.80;;;14.20;99.90;;;;;;5073238;28;20021;-60
2021/10/18 11:11:11;;;;;;;19.60;11.07;;;14.10;99.90;;;;;;5073584;28;20520;-60
2021/10/18 11:13:58;;;;;;;18.20;11.82;;;14.10;99.90;;;;;;5073927;28;20059;-59
2021/10/18 11:16:30;;;;;;;15.82;10.93;;;14.00;99.90;;;;;;5074084;28;20048;-58
2021/10/18 11:18:58;;;;;;;17.30;12.93;;;14.00;99.90;;;;;;5073828;28;20032;-58
2021/10/18 11:21:29;;;;;;;17.33;11.25;;;13.90;99.90;;;;;;5073657;28;20493;-58
2021/10/18 11:24:11;;;;;;;18.17;11.68;;;14.00;99.90;;;;;;5073710;28;20393;-57
2021/10/18 11:26:40;;;;;;;18.38;11.23;;;14.00;99.90;;;;;;5073939;28;20426;-60
2021/10/18 11:29:08;;;;;;;17.27;11.20;;;13.90;99.90;;;;;;5072885;28;20033;-60
2021/10/18 11:31:41;;;;;;;18.00;12.27;;;13.90;99.90;;;;;;5073143;28;20024;-60
2021/10/18 11:34:07;;;;;;;22.85;12.45;;;13.90;99.90;;;;;;5072858;28;20129;-61
2021/10/18 11:36:35;;;;;;;21.10;11.90;;;14.00;99.90;;;;;;5073128;28;20097;-60
2021/10/18 11:39:21;;;;;;;17.63;12.18;;;14.10;99.90;;;;;;5072901;28;20031;-60
2021/10/18 11:41:59;;;;;;;21.33;12.02;;;14.10;99.90;;;;;;5105321;22;20455;-58
2021/10/18 11:44:48;;;;;;;18.10;12.52;;;14.00;99.90;;;;;;5113498;28;20030;-58
2021/10/18 11:47:24;;;;;;;21.00;13.23;;;13.90;99.90;;;;;;5113350;28;20374;-63
2021/10/18 11:50:21;;;;;;;22.83;13.70;;;13.90;99.90;;;;;;5113714;28;20481;-61
2021/10/18 11:52:58;;;;;;;21.83;13.52;;;13.80;99.90;;;;;;5113753;28;20063;-62
2021/10/18 11:55:32;;;;;;;22.73;13.40;;;13.70;99.90;;;;;;5113839;28;20027;-61
2021/10/18 11:58:04;;;;;;;27.13;14.70;;;13.80;99.90;;;;;;5113908;28;20484;-60
2021/10/18 12:00:41;;;;;;;21.60;13.68;;;13.70;99.90;;;;;;5113647;28;20107;-60
2021/10/18 12:03:08;;;;;;;22.13;13.82;;;13.80;99.90;;;;;;5093326;28;20119;-61
2021/10/18 12:05:38;;;;;;;23.52;14.15;;;13.90;99.90;;;;;;5093414;28;20051;-61
2021/10/18 12:08:05;;;;;;;22.95;13.90;;;14.00;99.90;;;;;;5092604;28;20394;-60
2021/10/18 12:10:33;;;;;;;20.25;13.75;;;14.10;99.90;;;;;;5093269;28;20024;-60
2021/10/18 12:13:16;;;;;;;19.90;13.13;;;14.10;99.90;;;;;;5093139;28;20077;-62
2021/10/18 12:16:11;;;;;;;19.05;13.13;;;14.20;99.90;;;;;;5093239;28;20028;-61
2021/10/18 12:18:55;;;;;;;21.85;13.10;;;14.10;99.90;;;;;;5093052;28;20028;-60
2021/10/18 12:21:26;;;;;;;21.05;14.80;;;14.00;99.90;;;;;;5092896;28;20031;-61
2021/10/18 12:23:53;;;;;;;23.60;14.05;;;13.90;99.90;;;;;;5093272;28;20534;-62
2021/10/18 12:26:20;;;;;;;19.95;13.15;;;13.90;99.90;;;;;;5092761;28;20028;-60
2021/10/18 12:29:03;;;;;;;20.63;14.27;;;13.90;99.90;;;;;;5092638;28;20107;-61
2021/10/18 12:31:44;;;;;;;24.90;14.43;;;13.80;99.90;;;;;;5092543;28;20031;-60
2021/10/18 12:34:16;;;;;;;22.83;13.50;;;13.80;99.90;;;;;;5092632;28;20016;-61
2021/10/18 12:37:06;;;;;;;18.00;12.73;;;13.90;99.90;;;;;;5092580;28;20047;-62
2021/10/18 12:39:47;;;;;;;18.58;12.68;;;13.80;99.90;;;;;;5092449;28;20020;-60
2021/10/18 12:42:25;;;;;;;20.55;12.45;;;13.80;99.90;;;;;;5091974;28;20082;-60
2021/10/18 12:45:00;;;;;;;22.80;13.15;;;13.90;99.90;;;;;;5091983;28;20035;-61
2021/10/18 12:47:26;;;;;;;19.15;13.02;;;13.90;99.90;;;;;;5091875;28;20152;-61
2021/10/18 12:50:11;;;;;;;19.42;12.77;;;13.90;99.90;;;;;;5092312;28;20024;-61
2021/10/18 12:52:41;;;;;;;20.77;12.90;;;13.90;99.90;;;;;;5092210;28;20024;-59
2021/10/18 12:55:17;;;;;;;18.00;12.23;;;13.90;99.90;;;;;;5092569;28;21004;-57
2021/10/18 12:57:57;;;;;;;17.67;12.30;;;13.90;99.90;;;;;;5091976;28;20036;-59
2021/10/18 13:00:27;;;;;;;21.70;13.00;;;13.80;99.90;;;;;;5092217;28;20045;-61
2021/10/18 13:02:54;;;;;;;19.33;12.35;;;13.70;99.90;;;;;;5111052;28;20046;-62
2021/10/18 13:05:30;;;;;;;20.23;14.27;;;13.70;99.90;;;;;;5112202;28;20171;-61
2021/10/18 13:07:59;;;;;;;19.25;13.27;;;13.70;99.90;;;;;;5111319;28;20031;-62
2021/10/18 13:10:30;;;;;;;21.13;13.57;;;13.60;99.90;;;;;;5112150;28;20032;-61
2021/10/18 13:13:02;;;;;;;19.83;13.60;;;13.60;99.90;;;;;;5112031;28;20464;-62
2021/10/18 13:15:28;;;;;;;26.70;14.32;;;13.60;99.90;;;;;;5111972;28;20042;-61
2021/10/18 13:17:54;;;;;;;21.35;12.88;;;13.50;99.90;;;;;;5111771;28;20389;-62
2021/10/18 13:20:23;;;;;;;19.45;13.15;;;13.50;99.90;;;;;;5111943;28;20500;-61
2021/10/18 13:22:49;;;;;;;19.58;11.35;;;13.50;99.90;;;;;;5111828;28;20020;-62
2021/10/18 13:25:15;;;;;;;20.35;11.77;;;13.50;99.90;;;;;;5111868;28;20373;-62
2021/10/18 13:27:41;;;;;;;19.90;12.18;;;13.50;99.90;;;;;;5111277;28;20553;-60
2021/10/18 13:30:08;;;;;;;18.10;13.10;;;13.60;99.90;;;;;;5111967;28;20023;-60
2021/10/18 13:32:39;;;;;;;20.60;13.20;;;13.70;99.90;;;;;;5111704;28;20707;-60
2021/10/18 13:35:06;;;;;;;18.02;12.65;;;13.70;99.90;;;;;;5111750;27;20111;-58
2021/10/18 13:37:31;;;;;;;20.77;12.50;;;13.70;99.90;;;;;;5111404;27;20024;-59
2021/10/18 13:39:57;;;;;;;21.23;12.43;;;13.80;99.90;;;;;;5111636;28;20038;-59
2021/10/18 13:42:23;;;;;;;16.90;12.70;;;13.70;99.90;;;;;;5111305;28;20042;-60
2021/10/18 13:44:49;;;;;;;18.23;11.73;;;13.90;99.90;;;;;;5111633;28;20334;-58
2021/10/18 13:47:15;;;;;;;19.00;11.32;;;13.80;99.90;;;;;;5111133;28;20507;-60
2021/10/18 13:49:41;;;;;;;19.45;12.00;;;13.80;99.90;;;;;;5111390;28;20020;-59